Time;durP1;ratioP1;P1;durP2;ratioP2;P2;SDS_P1;SDS_P2;PMS_P1;PMS_P2;Temp;Humidity;BMP_temperature;BMP_pressure;BME280_temperature;BME280_humidity;BME280_pressure;Samples;Min_cycle;Max_cycle;Signal;HPM_P1;HPM_P2
2023/05/14 00:00:22;;;;;;;20.98;14.80;;;;;;;16.45;62.72;102201.25;5009543;28;20054;-46
2023/05/14 00:02:47;;;;;;;22.23;14.15;;;;;;;16.47;62.37;102196.84;4999554;28;20049;-45
2023/05/14 00:05:13;;;;;;;22.05;14.85;;;;;;;16.53;61.96;102194.28;4999976;28;20034;-46
2023/05/14 00:07:38;;;;;;;22.70;14.15;;;;;;;16.47;62.05;102189.84;5003135;28;20400;-44
2023/05/14 00:10:04;;;;;;;20.90;14.23;;;;;;;16.34;62.41;102192.34;4993737;28;20046;-44
2023/05/14 00:12:29;;;;;;;22.77;14.50;;;;;;;16.34;62.40;102187.09;5001937;28;20026;-46
2023/05/14 00:14:55;;;;;;;21.92;14.30;;;;;;;16.42;61.91;102186.28;4998479;28;20151;-46
2023/05/14 00:17:20;;;;;;;23.13;14.63;;;;;;;16.25;62.20;102182.59;4998877;28;20042;-44
2023/05/14 00:19:46;;;;;;;21.80;14.35;;;;;;;16.34;61.99;102177.44;5000741;28;20057;-48
2023/05/14 00:22:11;;;;;;;21.67;14.32;;;;;;;16.28;61.77;102180.03;4998884;28;20448;-47
2023/05/14 00:24:36;;;;;;;21.73;14.27;;;;;;;16.30;61.75;102173.00;5001101;28;20073;-48
2023/05/14 00:27:02;;;;;;;23.25;14.93;;;;;;;16.21;62.33;102167.66;4997446;28;20079;-53
2023/05/14 00:29:28;;;;;;;21.85;14.65;;;;;;;16.22;62.35;102161.53;4998773;28;20026;-51
2023/05/14 00:31:53;;;;;;;24.80;14.70;;;;;;;16.19;62.47;102166.75;4995024;28;20168;-47
2023/05/14 00:34:19;;;;;;;23.77;14.38;;;;;;;16.21;62.42;102168.53;5003188;28;20038;-47
2023/05/14 00:36:44;;;;;;;20.75;14.32;;;;;;;16.19;62.43;102166.75;4999041;28;20030;-49
2023/05/14 00:39:10;;;;;;;22.45;14.20;;;;;;;16.18;62.56;102172.88;4983546;28;20037;-46
2023/05/14 00:41:35;;;;;;;21.45;13.70;;;;;;;16.13;62.67;102169.31;4982825;28;20034;-47
2023/05/14 00:44:01;;;;;;;21.15;13.93;;;;;;;15.98;63.22;102170.00;4996121;28;20030;-47
2023/05/14 00:46:26;;;;;;;19.10;13.32;;;;;;;16.13;62.35;102166.69;4994699;28;20718;-48
2023/05/14 00:48:52;;;;;;;22.55;12.90;;;;;;;16.08;62.38;102163.13;4999445;28;20107;-47
2023/05/14 00:51:18;;;;;;;20.23;13.50;;;;;;;16.13;62.22;102161.41;4998132;28;20041;-45
2023/05/14 00:53:44;;;;;;;20.95;12.48;;;;;;;16.12;62.30;102167.53;5001583;28;20152;-48
2023/05/14 00:56:10;;;;;;;19.30;12.55;;;;;;;16.04;62.24;102161.34;4997239;28;20026;-47
2023/05/14 00:58:35;;;;;;;20.33;13.60;;;;;;;16.02;62.46;102156.03;5003070;28;20448;-49
2023/05/14 01:01:01;;;;;;;19.30;13.38;;;;;;;16.06;62.21;102154.31;4997244;28;20113;-46
2023/05/14 01:03:26;;;;;;;20.58;13.45;;;;;;;15.98;62.42;102159.50;5003461;28;20026;-46
2023/05/14 01:06:16;;;;;;;23.23;13.18;;;;;;;15.93;62.18;102150.66;4993781;28;20403;-51
2023/05/14 01:08:59;;;;;;;19.10;12.20;;;;;;;15.91;62.65;102143.63;4998003;28;20070;-45
2023/05/14 01:11:30;;;;;;;19.05;12.50;;;;;;;15.87;62.80;102144.44;4999874;28;20034;-45
2023/05/14 01:14:26;;;;;;;21.20;12.73;;;;;;;15.78;63.29;102150.50;4996853;28;20034;-45
2023/05/14 01:16:58;;;;;;;19.55;12.02;;;;;;;15.81;62.86;102156.66;4997562;28;20038;-47
2023/05/14 01:19:38;;;;;;;20.95;12.38;;;;;;;15.83;62.99;102152.31;5002548;28;20124;-46
2023/05/14 01:22:03;;;;;;;18.85;11.70;;;;;;;15.79;63.06;102161.03;4994090;28;20045;-48
2023/05/14 01:24:29;;;;;;;21.42;12.77;;;;;;;15.74;63.45;102154.81;5002541;28;20022;-52
2023/05/14 01:27:22;;;;;;;19.48;12.10;;;;;;;15.65;63.69;102154.72;4996934;28;20566;-44
2023/05/14 01:29:58;;;;;;;19.42;12.10;;;;;;;15.70;63.38;102150.41;4997031;28;20038;-47
2023/05/14 01:32:24;;;;;;;21.33;13.77;;;;;;;15.57;64.20;102158.09;4991449;28;20472;-45
2023/05/14 01:34:50;;;;;;;25.60;13.93;;;;;;;15.66;64.02;102158.22;4999293;28;20030;-44
2023/05/14 01:37:16;;;;;;;21.80;13.32;;;;;;;15.73;63.88;102141.69;4997345;28;20573;-49
2023/05/14 01:39:41;;;;;;;23.35;12.60;;;;;;;15.73;63.57;102149.56;4999956;28;20034;-52
2023/05/14 01:42:08;;;;;;;22.40;13.05;;;;;;;15.64;63.79;102146.81;4994249;28;20084;-46
2023/05/14 01:44:34;;;;;;;22.42;13.18;;;;;;;15.62;63.80;102141.50;5004937;28;20049;-51
2023/05/14 01:46:59;;;;;;;27.20;13.73;;;;;;;15.63;63.85;102138.03;5001395;28;20485;-45
2023/05/14 01:49:24;;;;;;;24.00;13.57;;;;;;;15.53;64.13;102130.91;5000572;28;20034;-47
2023/05/14 01:51:50;;;;;;;22.42;13.52;;;;;;;15.57;64.00;102127.44;4993505;28;20072;-50
2023/05/14 01:54:15;;;;;;;22.80;13.63;;;;;;;15.57;64.16;102118.66;5000599;28;20488;-46
2023/05/14 01:56:40;;;;;;;25.63;13.82;;;;;;;15.55;64.23;102121.31;4996998;28;20030;-49
2023/05/14 01:59:06;;;;;;;25.05;13.02;;;;;;;15.58;63.91;102123.94;4994241;28;20126;-45
2023/05/14 02:01:31;;;;;;;22.95;13.43;;;;;;;15.52;63.88;102122.94;4997208;28;20037;-47
2023/05/14 02:03:56;;;;;;;23.08;13.38;;;;;;;15.48;64.19;102136.94;4996671;28;20503;-50
2023/05/14 02:06:21;;;;;;;26.77;14.30;;;;;;;15.45;64.07;102132.50;5001743;28;20026;-45
2023/05/14 02:08:47;;;;;;;24.20;13.75;;;;;;;15.45;64.25;102135.13;4996009;28;20121;-46
2023/05/14 02:11:12;;;;;;;26.42;14.70;;;;;;;15.48;64.55;102139.56;4999614;28;20038;-49
2023/05/14 02:13:38;;;;;;;26.75;14.50;;;;;;;15.46;64.34;102131.63;5003843;28;20416;-48
2023/05/14 02:16:03;;;;;;;28.90;15.45;;;;;;;15.40;64.66;102134.19;4997582;28;20074;-51
2023/05/14 02:18:29;;;;;;;24.23;14.05;;;;;;;15.41;64.51;102134.22;5001442;28;20069;-44
2023/05/14 02:20:54;;;;;;;25.92;14.23;;;;;;;15.36;64.60;102129.75;4996978;28;20061;-46
2023/05/14 02:23:20;;;;;;;25.60;14.40;;;;;;;15.38;64.80;102126.28;4999252;28;20061;-49
2023/05/14 02:25:45;;;;;;;29.58;14.68;;;;;;;15.35;65.06;102121.00;4999738;28;20041;-45
2023/05/14 02:28:10;;;;;;;24.25;14.77;;;;;;;15.29;65.49;102127.91;5002234;28;20551;-44
2023/05/14 02:30:35;;;;;;;27.42;14.82;;;;;;;15.32;65.61;102120.94;5003412;28;20072;-52
2023/05/14 02:33:01;;;;;;;30.00;15.68;;;;;;;15.19;66.23;102113.75;5000050;28;20041;-46
2023/05/14 02:35:26;;;;;;;25.73;14.05;;;;;;;15.29;65.78;102106.88;5001612;28;20088;-45
2023/05/14 02:37:53;;;;;;;23.80;14.45;;;;;;;15.36;65.20;102107.00;4995923;28;20429;-47
2023/05/14 02:40:18;;;;;;;25.33;14.05;;;;;;;15.26;65.54;102104.19;5001566;28;20034;-50
2023/05/14 02:42:43;;;;;;;29.23;15.75;;;;;;;15.28;65.22;102103.38;5004613;28;20121;-45
2023/05/14 02:45:09;;;;;;;25.48;14.48;;;;;;;15.32;65.08;102104.28;4999569;28;20189;-49
2023/05/14 02:47:34;;;;;;;28.50;15.30;;;;;;;15.30;65.11;102098.16;5002517;28;20045;-50
2023/05/14 02:50:00;;;;;;;26.60;14.50;;;;;;;15.27;65.24;102113.84;4999768;28;20572;-44
2023/05/14 02:52:25;;;;;;;24.70;14.25;;;;;;;15.22;65.47;102100.66;5004607;28;20045;-47
2023/05/14 02:54:50;;;;;;;26.45;14.68;;;;;;;15.23;65.10;102099.81;5001590;28;20436;-44
2023/05/14 02:57:16;;;;;;;25.95;14.30;;;;;;;15.22;65.26;102102.41;5002490;28;20596;-46
2023/05/14 02:59:41;;;;;;;27.95;15.10;;;;;;;15.20;65.43;102097.13;5000462;28;20038;-50
2023/05/14 03:02:06;;;;;;;28.27;15.02;;;;;;;15.21;65.65;102103.25;4996088;28;20030;-46
2023/05/14 03:04:31;;;;;;;23.88;14.13;;;;;;;15.21;65.43;102105.88;5000325;28;20500;-48
2023/05/14 03:06:57;;;;;;;24.75;14.75;;;;;;;15.17;65.91;102101.47;4997434;28;20083;-46
2023/05/14 03:09:22;;;;;;;26.38;14.43;;;;;;;15.18;65.64;102097.97;5003891;28;20079;-44
2023/05/14 03:11:48;;;;;;;26.17;14.77;;;;;;;15.21;65.99;102103.25;4995998;28;20072;-45
2023/05/14 03:14:13;;;;;;;27.88;14.70;;;;;;;15.20;65.62;102088.34;5002623;28;20038;-44
2023/05/14 03:16:40;;;;;;;25.50;15.23;;;;;;;15.20;65.66;102097.13;5004152;28;20497;-44
2023/05/14 03:19:06;;;;;;;27.20;15.68;;;;;;;15.12;66.05;102090.00;4998611;28;20038;-52
2023/05/14 03:21:31;;;;;;;25.15;14.73;;;;;;;15.15;65.87;102095.28;5001831;28;20031;-48
2023/05/14 03:23:57;;;;;;;27.17;14.43;;;;;;;15.17;65.98;102091.84;4996688;28;20301;-45
2023/05/14 03:26:22;;;;;;;24.65;14.77;;;;;;;15.23;65.87;102093.66;4998980;28;20037;-44
2023/05/14 03:28:47;;;;;;;24.27;14.60;;;;;;;15.23;65.96;102083.16;5000955;28;20121;-48
2023/05/14 03:31:13;;;;;;;28.88;15.65;;;;;;;15.26;65.77;102086.69;5002752;28;20120;-49
2023/05/14 03:33:38;;;;;;;24.90;14.50;;;;;;;15.29;65.57;102075.38;5002076;28;20065;-47
2023/05/14 03:36:04;;;;;;;26.48;14.52;;;;;;;15.23;65.86;102084.03;5002616;28;20115;-46
2023/05/14 03:38:29;;;;;;;26.48;15.13;;;;;;;15.20;65.98;102090.97;5006060;28;20137;-51
2023/05/14 03:40:55;;;;;;;24.60;14.55;;;;;;;15.23;65.62;102081.41;4998862;28;20034;-45
2023/05/14 03:43:21;;;;;;;27.73;15.02;;;;;;;15.21;65.98;102082.25;4998890;28;20159;-43
2023/05/14 03:45:47;;;;;;;25.92;14.02;;;;;;;15.24;65.61;102077.06;4998230;28;20514;-45
2023/05/14 03:48:12;;;;;;;27.48;14.63;;;;;;;15.23;65.59;102080.53;5004832;28;20041;-46
2023/05/14 03:50:37;;;;;;;24.35;14.77;;;;;;;15.20;65.45;102080.47;5004472;28;20030;-44
2023/05/14 03:53:03;;;;;;;22.95;14.05;;;;;;;15.16;65.65;102082.19;4992019;28;20401;-47
2023/05/14 03:55:28;;;;;;;24.60;14.57;;;;;;;15.15;65.61;102085.69;5001311;28;20087;-48
2023/05/14 03:57:53;;;;;;;24.88;14.55;;;;;;;15.13;65.50;102082.13;4995610;28;20026;-46
2023/05/14 04:00:19;;;;;;;23.38;14.45;;;;;;;15.05;66.26;102083.78;5000654;28;20043;-46
2023/05/14 04:02:44;;;;;;;26.35;15.60;;;;;;;14.99;66.71;102088.97;4995369;28;20128;-52
2023/05/14 04:05:09;;;;;;;28.50;14.57;;;;;;;15.02;66.55;102087.25;4995383;28;20699;-47
2023/05/14 04:07:35;;;;;;;27.67;14.73;;;;;;;15.01;66.94;102085.47;4983904;28;20031;-46
2023/05/14 04:10:01;;;;;;;29.80;14.98;;;;;;;15.02;67.05;102094.25;4981709;28;20041;-45
2023/05/14 04:12:27;;;;;;;24.48;13.57;;;;;;;15.11;67.06;102089.13;4998420;28;20096;-45
2023/05/14 04:14:52;;;;;;;23.88;13.27;;;;;;;15.21;66.90;102091.00;4996587;28;20440;-49
2023/05/14 04:17:17;;;;;;;27.73;13.90;;;;;;;15.25;66.67;102084.03;4999529;28;20034;-44
2023/05/14 04:19:43;;;;;;;22.40;13.50;;;;;;;15.26;66.51;102089.31;4998374;28;20033;-46
2023/05/14 04:22:08;;;;;;;23.13;12.98;;;;;;;15.31;66.80;102087.63;4995206;28;20393;-45
2023/05/14 04:24:33;;;;;;;21.42;12.70;;;;;;;15.37;66.89;102087.72;5002608;28;20061;-45
2023/05/14 04:26:59;;;;;;;23.67;13.23;;;;;;;15.36;66.95;102082.47;4995511;28;20040;-45
2023/05/14 04:29:24;;;;;;;23.88;13.18;;;;;;;15.47;66.80;102090.47;4989641;28;20109;-44
2023/05/14 04:31:49;;;;;;;22.35;12.82;;;;;;;15.52;66.78;102087.06;4985064;28;20566;-48
2023/05/14 04:34:15;;;;;;;22.35;12.88;;;;;;;15.46;66.89;102084.34;5001165;28;20046;-46
2023/05/14 04:36:40;;;;;;;21.52;12.65;;;;;;;15.53;66.74;102082.69;4994914;28;20061;-46
2023/05/14 04:39:06;;;;;;;26.00;13.02;;;;;;;15.49;66.82;102088.75;4992717;28;20036;-45
2023/05/14 04:41:31;;;;;;;28.52;13.35;;;;;;;15.40;67.08;102089.50;4998135;28;20033;-46
2023/05/14 04:43:59;;;;;;;26.70;13.27;;;;;;;15.65;66.65;102083.72;4997622;28;20041;-45
2023/05/14 04:46:24;;;;;;;22.88;13.07;;;;;;;15.70;66.53;102092.56;4998038;28;20507;-47
2023/05/14 04:48:50;;;;;;;23.92;12.98;;;;;;;15.64;66.64;102094.22;4995460;28;20033;-44
2023/05/14 04:51:15;;;;;;;25.38;13.43;;;;;;;15.81;66.52;102090.03;4996956;28;20049;-46
2023/05/14 04:53:41;;;;;;;22.75;12.70;;;;;;;16.14;65.66;102071.09;4998027;28;20496;-46
2023/05/14 04:56:06;;;;;;;22.05;12.27;;;;;;;16.27;65.49;102085.25;4997094;28;20042;-45
2023/05/14 04:58:31;;;;;;;21.17;12.32;;;;;;;16.13;65.61;102086.00;5000486;28;20057;-46
2023/05/14 05:00:58;;;;;;;24.42;13.15;;;;;;;16.12;65.54;102088.63;4995242;28;20030;-50
2023/05/14 05:03:23;;;;;;;19.70;11.93;;;;;;;16.19;65.24;102082.56;4997797;28;20033;-48
2023/05/14 05:05:48;;;;;;;21.20;12.60;;;;;;;16.33;64.86;102086.19;4993875;28;20036;-45
2023/05/14 05:08:14;;;;;;;23.38;12.77;;;;;;;16.07;65.18;102099.09;4998292;28;20496;-48
2023/05/14 05:10:39;;;;;;;23.65;13.00;;;;;;;16.12;65.30;102089.50;4993885;28;20037;-46
2023/05/14 05:13:04;;;;;;;23.42;12.40;;;;;;;16.31;65.00;102090.56;4996437;28;20050;-47
2023/05/14 05:15:30;;;;;;;25.63;13.40;;;;;;;15.95;65.88;102101.59;5001031;28;20094;-47
2023/05/14 05:17:55;;;;;;;23.67;13.35;;;;;;;16.40;65.01;102100.31;4999281;28;20065;-47
2023/05/14 05:20:20;;;;;;;24.40;14.15;;;;;;;16.12;66.01;102099.13;5005160;28;20034;-47
2023/05/14 05:22:46;;;;;;;26.15;14.57;;;;;;;16.50;64.59;102107.41;4998564;28;20400;-54
2023/05/14 05:25:11;;;;;;;26.30;13.73;;;;;;;16.77;63.71;102114.69;4999939;28;20039;-46
2023/05/14 05:27:37;;;;;;;23.20;14.40;;;;;;;16.63;63.60;102117.19;4999925;28;20026;-45
2023/05/14 05:30:03;;;;;;;26.08;15.02;;;;;;;16.64;63.53;102116.34;4994344;28;20084;-45
2023/05/14 05:32:28;;;;;;;29.95;16.05;;;;;;;16.50;63.82;102104.75;5000945;28;20121;-53
2023/05/14 05:34:54;;;;;;;28.10;16.02;;;;;;;16.46;63.74;102126.69;4998844;28;20121;-48
2023/05/14 05:37:19;;;;;;;31.40;16.90;;;;;;;16.52;64.23;102113.56;4997367;28;20030;-46
2023/05/14 05:39:46;;;;;;;30.50;16.25;;;;;;;16.47;64.59;102110.88;4996406;28;20084;-48
2023/05/14 05:42:11;;;;;;;31.08;16.92;;;;;;;16.28;65.69;102119.50;4994977;28;20107;-46
2023/05/14 05:44:37;;;;;;;35.55;17.00;;;;;;;16.57;64.89;102125.91;4997199;28;20046;-49
2023/05/14 05:47:02;;;;;;;32.15;17.52;;;;;;;16.29;65.87;102125.59;4994390;28;20104;-46
2023/05/14 05:49:27;;;;;;;33.13;17.00;;;;;;;16.70;64.42;102119.03;5003718;28;20113;-50
2023/05/14 05:51:52;;;;;;;29.02;16.40;;;;;;;16.88;63.73;102120.91;4999980;28;20034;-45
2023/05/14 05:54:18;;;;;;;32.80;17.48;;;;;;;16.75;64.45;102112.03;5003081;28;20029;-45
2023/05/14 05:56:43;;;;;;;30.80;17.25;;;;;;;16.71;64.21;102125.19;5002947;28;20458;-49
2023/05/14 05:59:08;;;;;;;29.52;17.35;;;;;;;16.93;63.91;102117.44;4998034;28;20038;-45
2023/05/14 06:01:34;;;;;;;33.28;18.35;;;;;;;16.60;64.65;102117.16;5003132;28;20128;-51
2023/05/14 06:03:59;;;;;;;30.85;17.65;;;;;;;16.41;65.61;102125.72;5000196;28;20111;-44
2023/05/14 06:06:24;;;;;;;32.60;18.20;;;;;;;16.34;65.76;102127.44;5005867;28;20511;-47
2023/05/14 06:08:50;;;;;;;28.48;16.55;;;;;;;16.67;64.71;102120.72;5002187;28;20038;-45
2023/05/14 06:11:15;;;;;;;27.17;16.60;;;;;;;16.80;64.77;102126.13;5003627;28;20037;-45
2023/05/14 06:13:41;;;;;;;30.73;16.55;;;;;;;16.71;64.60;102125.19;5001040;28;20026;-47
2023/05/14 06:16:06;;;;;;;25.95;15.20;;;;;;;17.00;64.20;102110.47;4999706;28;20038;-48
2023/05/14 06:18:31;;;;;;;27.23;15.75;;;;;;;16.67;65.22;102126.00;5005944;28;20540;-47
2023/05/14 06:20:58;;;;;;;25.15;14.57;;;;;;;16.61;65.52;102121.56;5000317;28;20038;-51
2023/05/14 06:23:25;;;;;;;22.85;13.82;;;;;;;16.79;65.13;102124.34;5002729;28;20076;-48
2023/05/14 06:25:50;;;;;;;23.25;13.90;;;;;;;16.98;64.46;102120.97;4998735;28;20535;-48
2023/05/14 06:28:15;;;;;;;20.90;13.40;;;;;;;17.29;63.83;102126.44;5001632;28;20054;-48
2023/05/14 06:30:41;;;;;;;21.70;13.60;;;;;;;17.12;64.33;102126.34;5000545;28;20050;-46
2023/05/14 06:33:06;;;;;;;19.40;13.52;;;;;;;17.06;64.06;102128.94;4993923;28;20125;-51
2023/05/14 06:35:31;;;;;;;21.15;13.43;;;;;;;17.10;63.88;102125.44;5003794;28;20034;-50
2023/05/14 06:37:57;;;;;;;18.70;13.00;;;;;;;17.29;63.09;102135.22;4999284;28;20060;-45
2023/05/14 06:40:22;;;;;;;18.88;12.57;;;;;;;17.31;63.71;102137.88;5000468;28;20448;-48
2023/05/14 06:42:47;;;;;;;19.80;13.48;;;;;;;17.36;62.84;102137.03;4997042;28;20045;-46
2023/05/14 06:45:13;;;;;;;19.58;13.63;;;;;;;17.16;63.85;102129.88;5000244;28;20528;-46
2023/05/14 06:47:38;;;;;;;19.83;12.23;;;;;;;17.79;62.50;102142.53;5002427;28;20574;-52
2023/05/14 06:50:04;;;;;;;16.50;12.55;;;;;;;17.78;61.45;102127.59;5001511;28;21196;-50
2023/05/14 06:52:29;;;;;;;20.58;13.68;;;;;;;17.21;63.71;102125.50;5002857;28;20042;-47
2023/05/14 06:54:54;;;;;;;19.77;13.02;;;;;;;17.44;63.92;102121.28;4996602;28;20037;-48
2023/05/14 06:57:20;;;;;;;20.55;13.00;;;;;;;17.66;62.54;102114.34;5000296;28;20031;-46
2023/05/14 06:59:45;;;;;;;24.15;12.30;;;;;;;17.84;62.24;102114.41;4997865;28;20535;-46
2023/05/14 07:02:11;;;;;;;19.40;12.68;;;;;;;18.00;61.63;102115.31;5007718;28;20124;-48
2023/05/14 07:04:36;;;;;;;17.08;12.05;;;;;;;17.88;61.63;102118.81;5018386;28;20036;-45
2023/05/14 07:07:01;;;;;;;17.60;12.10;;;;;;;17.71;61.44;102117.88;5001790;28;20030;-45
2023/05/14 07:09:27;;;;;;;15.48;11.55;;;;;;;18.06;60.18;102113.59;4998225;28;20076;-46
2023/05/14 07:11:52;;;;;;;18.20;11.55;;;;;;;18.59;58.98;102105.78;4999454;28;20036;-49
2023/05/14 07:14:18;;;;;;;17.95;11.85;;;;;;;18.72;59.07;102106.66;4993799;28;20117;-46
2023/05/14 07:16:44;;;;;;;16.55;11.27;;;;;;;19.03;57.47;102110.13;5002119;28;20037;-48
2023/05/14 07:19:09;;;;;;;18.58;10.98;;;;;;;19.49;56.14;102108.28;4994680;28;20050;-50
2023/05/14 07:21:35;;;;;;;17.17;10.50;;;;;;;19.04;56.63;102111.88;5000017;28;20104;-44
2023/05/14 07:24:00;;;;;;;16.52;10.63;;;;;;;19.09;57.87;102107.47;5001979;28;20030;-48
2023/05/14 07:26:26;;;;;;;16.50;10.93;;;;;;;19.52;56.15;102110.03;5004931;28;20377;-49
2023/05/14 07:28:51;;;;;;;21.67;11.23;;;;;;;19.54;56.81;102100.31;5001515;28;20064;-45
2023/05/14 07:31:16;;;;;;;17.92;10.65;;;;;;;19.60;56.95;102105.59;5001918;28;20026;-46
2023/05/14 07:33:42;;;;;;;17.38;10.95;;;;;;;20.07;55.86;102114.16;4999734;28;20540;-48
2023/05/14 07:36:07;;;;;;;19.25;11.70;;;;;;;19.98;55.19;102105.41;4997312;28;20033;-44
2023/05/14 07:38:33;;;;;;;19.13;12.63;;;;;;;19.98;53.75;102113.34;5002344;28;20034;-53
2023/05/14 07:40:58;;;;;;;22.70;12.05;;;;;;;19.41;57.07;102112.66;4997268;28;20034;-46
2023/05/14 07:43:23;;;;;;;17.40;10.65;;;;;;;20.23;54.96;102102.59;5000684;28;20036;-49
2023/05/14 07:45:49;;;;;;;18.73;11.23;;;;;;;20.59;52.84;102101.47;4997252;28;20060;-51
2023/05/14 07:48:14;;;;;;;16.30;11.00;;;;;;;21.02;51.17;102106.34;4997133;28;20137;-46
2023/05/14 07:50:39;;;;;;;15.57;10.07;;;;;;;21.18;50.75;102105.31;5001304;28;20054;-45
2023/05/14 07:53:05;;;;;;;21.08;11.05;;;;;;;20.90;51.73;102101.19;4995775;28;20042;-45
2023/05/14 07:55:30;;;;;;;16.10;10.13;;;;;;;21.18;51.28;102101.78;5001531;28;20026;-45
2023/05/14 07:57:55;;;;;;;17.45;9.80;;;;;;;21.89;48.88;102097.38;4995903;28;20113;-47
2023/05/14 08:00:21;;;;;;;17.38;9.77;;;;;;;22.39;48.27;102089.53;4983365;28;20436;-46
2023/05/14 08:02:47;;;;;;;18.92;10.93;;;;;;;21.57;49.17;102101.34;4996225;28;20047;-45
2023/05/14 08:05:13;;;;;;;21.77;11.75;;;;;;;20.87;50.87;102093.25;5000707;28;20039;-47
2023/05/14 08:07:38;;;;;;;20.83;11.43;;;;;;;20.21;53.61;102095.53;5000976;28;20034;-44
2023/05/14 08:10:06;;;;;;;22.33;12.18;;;;;;;20.31;53.97;102091.06;4994824;28;20048;-47
2023/05/14 08:12:32;;;;;;;20.33;11.20;;;;;;;20.57;53.80;102091.75;5001260;28;20042;-44
2023/05/14 08:14:57;;;;;;;21.15;11.00;;;;;;;21.36;51.68;102086.56;4997857;28;20044;-47
2023/05/14 08:17:22;;;;;;;21.95;10.60;;;;;;;21.92;50.95;102086.72;5003458;28;20022;-49
2023/05/14 08:19:48;;;;;;;19.50;9.80;;;;;;;21.67;48.99;102084.38;4996643;28;20493;-44
2023/05/14 08:22:13;;;;;;;17.23;9.60;;;;;;;21.90;49.22;102073.44;4983429;28;20117;-45
2023/05/14 08:24:39;;;;;;;16.98;9.70;;;;;;;21.76;49.26;102081.63;4998390;28;20064;-47
2023/05/14 08:27:05;;;;;;;16.83;9.80;;;;;;;21.57;49.06;102077.47;4999715;28;20519;-46
2023/05/14 08:29:30;;;;;;;18.70;9.73;;;;;;;21.35;51.21;102074.19;5001680;28;20026;-47
2023/05/14 08:31:56;;;;;;;17.75;9.73;;;;;;;21.74;50.18;102071.91;4994613;28;20041;-48
2023/05/14 08:34:21;;;;;;;18.35;9.90;;;;;;;20.57;51.72;102070.56;4998113;28;20038;-52
2023/05/14 08:36:46;;;;;;;22.70;10.05;;;;;;;20.86;52.28;102083.56;4997393;28;20382;-48
2023/05/14 08:39:12;;;;;;;21.73;10.50;;;;;;;20.19;54.90;102076.13;5002972;28;20030;-50
2023/05/14 08:41:38;;;;;;;21.13;10.90;;;;;;;20.21;54.73;102083.19;4998440;28;20139;-51
2023/05/14 08:44:13;;;;;;;20.38;10.25;;;;;;;20.99;51.11;102074.56;4998082;28;20038;-49
2023/05/14 08:46:40;;;;;;;18.17;10.02;;;;;;;20.12;54.03;102064.72;5007843;28;20033;-46
2023/05/14 08:49:28;;;;;;;23.42;10.02;;;;;;;20.36;53.86;102063.69;5001682;28;20049;-47
2023/05/14 08:51:54;;;;;;;18.27;9.52;;;;;;;20.30;53.92;102069.00;4994334;28;20053;-44
2023/05/14 08:54:22;;;;;;;18.08;9.73;;;;;;;19.97;54.93;102064.81;4983843;28;20722;-47
2023/05/14 08:56:49;;;;;;;19.20;10.43;;;;;;;19.58;55.67;102057.97;4995410;28;20040;-48
2023/05/14 08:59:15;;;;;;;19.63;10.48;;;;;;;20.21;55.92;102062.00;4998403;28;20034;-50
2023/05/14 09:01:50;;;;;;;16.38;8.80;;;;;;;21.03;52.71;102055.09;4999535;28;20030;-50
2023/05/14 09:04:19;;;;;;;20.75;10.13;;;;;;;20.50;52.81;102053.84;4999561;28;20038;-49
2023/05/14 09:06:48;;;;;;;21.02;10.55;;;;;;;20.54;54.07;102052.94;4994245;28;20771;-52
2023/05/14 09:09:13;;;;;;;18.67;9.20;;;;;;;21.07;50.71;102054.16;4997377;28;20045;-49
2023/05/14 09:11:45;;;;;;;17.63;9.30;;;;;;;20.72;52.44;102057.19;4999796;28;20026;-46
2023/05/14 09:14:11;;;;;;;17.80;8.70;;;;;;;20.79;51.36;102050.94;4994177;28;20413;-46
2023/05/14 09:16:37;;;;;;;17.13;9.05;;;;;;;20.69;52.77;102057.19;4997354;28;20029;-45
2023/05/14 09:19:06;;;;;;;16.55;10.02;;;;;;;20.53;53.51;102040.56;4998276;28;20034;-46
2023/05/14 09:21:32;;;;;;;16.88;8.82;;;;;;;20.25;53.72;102045.19;5002002;28;20046;-46
2023/05/14 09:23:57;;;;;;;24.30;9.75;;;;;;;20.19;54.60;102047.00;4991107;28;20587;-45
2023/05/14 09:26:25;;;;;;;18.67;9.77;;;;;;;20.20;55.04;102046.09;4987568;28;20038;-44
2023/05/14 09:28:55;;;;;;;19.92;10.00;;;;;;;20.15;54.79;102048.78;4998026;28;20034;-46
2023/05/14 09:31:20;;;;;;;18.30;9.93;;;;;;;20.29;53.52;102039.88;4999197;28;20562;-49
2023/05/14 09:33:50;;;;;;;18.38;10.05;;;;;;;20.57;52.93;102038.75;4995369;28;20042;-49
2023/05/14 09:36:16;;;;;;;21.25;11.00;;;;;;;20.60;53.08;102044.94;4994783;28;20088;-47
2023/05/14 09:38:41;;;;;;;23.90;11.70;;;;;;;20.13;55.93;102045.28;5001696;28;20037;-48
2023/05/14 09:41:07;;;;;;;19.90;11.88;;;;;;;20.19;55.12;102042.56;4993320;28;20034;-45
2023/05/14 09:43:32;;;;;;;22.02;11.60;;;;;;;20.97;53.63;102044.56;5002589;28;20065;-45
2023/05/14 09:45:57;;;;;;;19.02;11.48;;;;;;;20.69;53.29;102046.59;4995645;28;20511;-44
2023/05/14 09:48:24;;;;;;;23.15;11.30;;;;;;;20.38;54.60;102043.34;5004720;28;20030;-49
2023/05/14 09:50:50;;;;;;;20.50;11.25;;;;;;;19.96;55.07;102049.81;4997997;28;20034;-47
2023/05/14 09:53:16;;;;;;;28.13;13.02;;;;;;;20.17;56.03;102046.16;5003929;28;20030;-44
2023/05/14 09:55:42;;;;;;;23.20;12.20;;;;;;;19.59;56.40;102046.50;5004205;28;20120;-45
2023/05/14 09:58:07;;;;;;;22.50;12.07;;;;;;;20.56;54.24;102032.59;4998482;28;20084;-50
2023/05/14 10:00:34;;;;;;;21.35;11.88;;;;;;;20.67;53.44;102038.66;4997071;28;20049;-48
2023/05/14 10:03:06;;;;;;;20.30;11.75;;;;;;;20.76;52.80;102032.41;4993429;28;20087;-50
2023/05/14 10:05:35;;;;;;;21.23;12.30;;;;;;;20.35;55.07;102029.25;4998033;28;20034;-49
2023/05/14 10:08:07;;;;;;;24.40;11.30;;;;;;;19.72;56.13;102039.38;4995940;28;20034;-46
2023/05/14 10:10:35;;;;;;;20.52;11.25;;;;;;;19.89;56.47;102024.28;4995538;28;20061;-51
2023/05/14 10:13:04;;;;;;;23.88;12.70;;;;;;;19.45;57.57;102029.81;4991345;28;20512;-48
2023/05/14 10:15:37;;;;;;;25.23;12.13;;;;;;;20.56;55.02;102021.97;4997447;28;20037;-47
2023/05/14 10:18:09;;;;;;;22.70;12.30;;;;;;;20.47;56.90;102022.09;4990592;28;20029;-50
2023/05/14 10:20:36;;;;;;;23.38;11.85;;;;;;;20.26;55.17;102017.81;4995419;28;20121;-49
2023/05/14 10:23:02;;;;;;;21.95;12.32;;;;;;;20.03;55.58;102017.13;4993049;28;20204;-47
2023/05/14 10:25:28;;;;;;;22.00;13.15;;;;;;;19.80;56.51;102019.06;5001187;28;20554;-46
2023/05/14 10:27:54;;;;;;;22.92;12.90;;;;;;;19.70;57.35;102022.66;4997117;28;20639;-46
2023/05/14 10:30:21;;;;;;;20.45;12.15;;;;;;;20.19;56.50;102018.75;4993995;28;20034;-48
2023/05/14 10:32:47;;;;;;;19.45;11.00;;;;;;;20.55;55.02;102022.03;4998127;28;20034;-49
2023/05/14 10:35:21;;;;;;;19.30;11.13;;;;;;;20.89;54.81;102019.88;5000201;28;20030;-47
2023/05/14 10:37:50;;;;;;;18.33;10.95;;;;;;;21.36;52.99;102012.28;4998770;28;20046;-48
2023/05/14 10:40:17;;;;;;;18.10;9.65;;;;;;;21.72;51.95;102007.34;5002160;28;20101;-46
2023/05/14 10:42:42;;;;;;;24.02;10.35;;;;;;;21.27;52.80;102003.56;5002430;28;20535;-46
2023/05/14 10:45:10;;;;;;;15.93;9.95;;;;;;;21.70;53.10;101994.13;4999044;28;20034;-46
2023/05/14 10:47:37;;;;;;;19.67;10.43;;;;;;;21.99;51.61;102001.66;5002696;28;20037;-51
2023/05/14 10:50:05;;;;;;;23.63;11.20;;;;;;;21.62;51.87;102001.31;4996233;28;20504;-51
2023/05/14 10:52:31;;;;;;;18.65;10.20;;;;;;;21.72;52.13;102000.25;5003251;28;20404;-46
2023/05/14 10:54:59;;;;;;;17.98;10.40;;;;;;;21.76;51.82;101999.34;4994898;28;20033;-45
2023/05/14 10:57:30;;;;;;;19.52;9.98;;;;;;;21.52;53.13;102002.34;5005004;28;20041;-46
2023/05/14 10:59:58;;;;;;;17.48;10.15;;;;;;;21.72;52.77;101991.41;4996223;28;20099;-47
2023/05/14 11:02:25;;;;;;;19.33;10.23;;;;;;;21.88;50.68;101987.66;5004334;28;20145;-46
2023/05/14 11:04:59;;;;;;;17.98;9.80;;;;;;;21.74;52.75;101989.63;4995658;28;20044;-47